Pagrindinis puslapis
METAR-TAF:

METAR-TAF

Oro uostai :

Turaif, Saudo Arabija

platuma: 31-41N, ilguma: 038-44E, Aukštis: 813 m

Dabartinis oras

Ataskaita buvo paskelbta 51 minutes, ne 10:00 UTC
Vėjas 14 kt iš Vakarų
Temperatūra 14°C
Drėgmė 77%
Slėgis 1019 hPa
Matomumas 10 km arba daugiau
Išsisklaidę debesys ne aukštis 3000 ft

METAR: OETR 261000Z 27014KT 9999 SCT030 14/10 Q1019

Laikas: 13:51 (10:51 UTC)

Prognozė

Ataskaita buvo paskelbta 11 valandos ir 51 minutes, ne 23:00 UTC
Prognozė galioja nuo 26 metu 00 UTC su 27 metu 06 UTC
Vėjas 6 kt iš Šiaurės/Šiaurės Vakarų su gūsio iki 16 kt
Matomumas: 7000 m
Mažai debesys ne aukštis 3000 ft
Laikinai
nuo 26 metu 00 UTC su 26 metu 06 UTC
Vėjas 3 kt nuo kintamojo kryptimis
Matomumas: 3000 m
Išsisklaidę debesys ne aukštis 2000 ft
rūkana, migla

TAF: OETR 252300Z 2600/2706 33006G16KT 7000 FEW030 TEMPO 2600/2606 VRB03KT 3000 BR HZ SCT020

Orai ataskaitas ir orų prognozės (METAR, TAF).

turimą stotys yra geltonos ir raudonos taškus žemėlapyje.

Perkelti pele per norėdami pamatyti stoties vardą.

Tada spustelėkite, norėdami matyti oro stebėjimo ir prognozės.

Norėdami pakeisti žemėlapį: spustelėkite ant žalios mygtukų su juodo kryžiaus žemyn,; žalią mygtuką su brūkšneliu, jei norite nutolinti; arba žalių rodyklių gretimoms žemėlapius.


METAR-TAF: